sensor_id;sensor_type;location;lat;lon;timestamp;P1;durP1;ratioP1;P2;durP2;ratioP2
20828;SDS011;10575;50.124;8.582;2022-08-06T00:01:52;2.67;;;1.42;;
20828;SDS011;10575;50.124;8.582;2022-08-06T00:04:19;4.68;;;1.30;;
20828;SDS011;10575;50.124;8.582;2022-08-06T00:06:45;3.63;;;1.27;;
20828;SDS011;10575;50.124;8.582;2022-08-06T00:09:11;2.72;;;1.23;;
20828;SDS011;10575;50.124;8.582;2022-08-06T00:11:37;3.03;;;1.92;;
20828;SDS011;10575;50.124;8.582;2022-08-06T00:14:03;2.53;;;1.40;;
20828;SDS011;10575;50.124;8.582;2022-08-06T00:16:29;2.97;;;1.10;;
20828;SDS011;10575;50.124;8.582;2022-08-06T00:18:55;1.58;;;1.10;;
20828;SDS011;10575;50.124;8.582;2022-08-06T00:21:20;5.68;;;1.23;;
20828;SDS011;10575;50.124;8.582;2022-08-06T00:23:46;1.65;;;1.15;;
20828;SDS011;10575;50.124;8.582;2022-08-06T00:26:12;2.65;;;1.35;;
20828;SDS011;10575;50.124;8.582;2022-08-06T00:28:37;2.72;;;1.40;;
20828;SDS011;10575;50.124;8.582;2022-08-06T00:31:04;1.17;;;0.95;;
20828;SDS011;10575;50.124;8.582;2022-08-06T00:33:30;4.07;;;1.50;;
20828;SDS011;10575;50.124;8.582;2022-08-06T00:35:56;1.35;;;1.20;;
20828;SDS011;10575;50.124;8.582;2022-08-06T00:38:22;1.48;;;1.10;;
20828;SDS011;10575;50.124;8.582;2022-08-06T00:40:48;1.63;;;1.10;;
20828;SDS011;10575;50.124;8.582;2022-08-06T00:43:14;1.92;;;1.20;;
20828;SDS011;10575;50.124;8.582;2022-08-06T00:45:40;3.15;;;0.95;;
20828;SDS011;10575;50.124;8.582;2022-08-06T00:48:06;1.45;;;1.17;;
20828;SDS011;10575;50.124;8.582;2022-08-06T00:50:31;2.88;;;1.10;;
20828;SDS011;10575;50.124;8.582;2022-08-06T00:53:01;1.52;;;0.80;;
20828;SDS011;10575;50.124;8.582;2022-08-06T00:55:28;1.30;;;1.20;;
20828;SDS011;10575;50.124;8.582;2022-08-06T00:57:53;2.65;;;1.08;;
20828;SDS011;10575;50.124;8.582;2022-08-06T01:00:19;2.50;;;0.90;;
20828;SDS011;10575;50.124;8.582;2022-08-06T01:02:45;1.20;;;0.80;;
20828;SDS011;10575;50.124;8.582;2022-08-06T01:05:10;2.38;;;1.10;;
20828;SDS011;10575;50.124;8.582;2022-08-06T01:07:36;2.13;;;1.25;;
20828;SDS011;10575;50.124;8.582;2022-08-06T01:10:02;1.10;;;1.00;;
20828;SDS011;10575;50.124;8.582;2022-08-06T01:12:28;0.98;;;0.88;;
20828;SDS011;10575;50.124;8.582;2022-08-06T01:14:54;1.35;;;1.00;;
20828;SDS011;10575;50.124;8.582;2022-08-06T01:17:22;1.15;;;1.00;;
20828;SDS011;10575;50.124;8.582;2022-08-06T01:28:05;1.67;;;0.95;;
20828;SDS011;10575;50.124;8.582;2022-08-06T01:30:39;1.83;;;0.90;;
20828;SDS011;10575;50.124;8.582;2022-08-06T01:33:13;1.42;;;1.30;;
20828;SDS011;10575;50.124;8.582;2022-08-06T01:35:51;2.95;;;0.90;;
20828;SDS011;10575;50.124;8.582;2022-08-06T01:38:36;3.38;;;1.40;;
20828;SDS011;10575;50.124;8.582;2022-08-06T01:41:07;1.67;;;1.15;;
20828;SDS011;10575;50.124;8.582;2022-08-06T01:43:36;1.52;;;1.10;;
20828;SDS011;10575;50.124;8.582;2022-08-06T01:46:03;1.67;;;1.20;;
20828;SDS011;10575;50.124;8.582;2022-08-06T01:48:30;1.92;;;1.20;;
20828;SDS011;10575;50.124;8.582;2022-08-06T01:50:59;2.70;;;1.50;;
20828;SDS011;10575;50.124;8.582;2022-08-06T01:53:28;4.90;;;1.15;;
20828;SDS011;10575;50.124;8.582;2022-08-06T01:55:58;1.60;;;1.20;;
20828;SDS011;10575;50.124;8.582;2022-08-06T01:58:27;2.78;;;1.45;;
20828;SDS011;10575;50.124;8.582;2022-08-06T02:01:02;4.65;;;1.13;;
20828;SDS011;10575;50.124;8.582;2022-08-06T02:06:06;3.72;;;1.30;;
20828;SDS011;10575;50.124;8.582;2022-08-06T02:08:33;1.40;;;1.30;;
20828;SDS011;10575;50.124;8.582;2022-08-06T02:11:02;1.25;;;1.15;;
20828;SDS011;10575;50.124;8.582;2022-08-06T02:13:29;6.90;;;1.23;;
20828;SDS011;10575;50.124;8.582;2022-08-06T02:15:58;4.10;;;1.50;;
20828;SDS011;10575;50.124;8.582;2022-08-06T02:18:26;2.97;;;1.23;;
20828;SDS011;10575;50.124;8.582;2022-08-06T02:20:54;1.73;;;1.25;;
20828;SDS011;10575;50.124;8.582;2022-08-06T02:23:25;3.45;;;1.60;;
20828;SDS011;10575;50.124;8.582;2022-08-06T02:25:53;1.45;;;1.20;;
20828;SDS011;10575;50.124;8.582;2022-08-06T02:28:20;1.63;;;1.27;;
20828;SDS011;10575;50.124;8.582;2022-08-06T02:30:50;2.17;;;1.55;;
20828;SDS011;10575;50.124;8.582;2022-08-06T02:33:18;2.92;;;1.35;;
20828;SDS011;10575;50.124;8.582;2022-08-06T02:35:49;2.63;;;1.75;;
20828;SDS011;10575;50.124;8.582;2022-08-06T02:38:28;1.65;;;1.20;;
20828;SDS011;10575;50.124;8.582;2022-08-06T02:41:11;1.38;;;1.25;;
20828;SDS011;10575;50.124;8.582;2022-08-06T02:44:12;3.00;;;1.30;;
20828;SDS011;10575;50.124;8.582;2022-08-06T02:46:44;4.50;;;0.95;;
20828;SDS011;10575;50.124;8.582;2022-08-06T02:49:21;1.30;;;1.20;;
20828;SDS011;10575;50.124;8.582;2022-08-06T02:51:58;1.45;;;1.10;;
20828;SDS011;10575;50.124;8.582;2022-08-06T02:54:32;5.18;;;1.20;;
20828;SDS011;10575;50.124;8.582;2022-08-06T02:57:04;2.35;;;1.20;;
20828;SDS011;10575;50.124;8.582;2022-08-06T02:59:33;1.45;;;1.20;;
20828;SDS011;10575;50.124;8.582;2022-08-06T03:02:04;4.82;;;1.27;;
20828;SDS011;10575;50.124;8.582;2022-08-06T03:04:34;3.92;;;1.10;;
20828;SDS011;10575;50.124;8.582;2022-08-06T03:07:05;2.75;;;1.30;;
20828;SDS011;10575;50.124;8.582;2022-08-06T03:09:34;1.92;;;1.10;;
20828;SDS011;10575;50.124;8.582;2022-08-06T03:12:00;4.00;;;1.13;;
20828;SDS011;10575;50.124;8.582;2022-08-06T03:14:26;3.53;;;1.10;;
20828;SDS011;10575;50.124;8.582;2022-08-06T03:16:53;1.63;;;1.30;;
20828;SDS011;10575;50.124;8.582;2022-08-06T03:19:20;1.30;;;1.00;;
20828;SDS011;10575;50.124;8.582;2022-08-06T03:21:47;3.17;;;1.23;;
20828;SDS011;10575;50.124;8.582;2022-08-06T03:24:13;3.28;;;1.05;;
20828;SDS011;10575;50.124;8.582;2022-08-06T03:26:39;2.15;;;1.00;;
20828;SDS011;10575;50.124;8.582;2022-08-06T03:29:07;1.73;;;1.15;;
20828;SDS011;10575;50.124;8.582;2022-08-06T03:31:34;2.58;;;1.15;;
20828;SDS011;10575;50.124;8.582;2022-08-06T03:33:59;1.30;;;1.15;;
20828;SDS011;10575;50.124;8.582;2022-08-06T03:36:26;2.05;;;1.10;;
20828;SDS011;10575;50.124;8.582;2022-08-06T03:39:00;2.42;;;1.10;;
20828;SDS011;10575;50.124;8.582;2022-08-06T03:41:29;4.03;;;1.35;;
20828;SDS011;10575;50.124;8.582;2022-08-06T03:43:57;1.20;;;1.08;;
20828;SDS011;10575;50.124;8.582;2022-08-06T03:46:24;2.25;;;1.10;;
20828;SDS011;10575;50.124;8.582;2022-08-06T03:49:01;2.20;;;1.40;;
20828;SDS011;10575;50.124;8.582;2022-08-06T03:51:28;1.83;;;1.00;;
20828;SDS011;10575;50.124;8.582;2022-08-06T03:53:55;3.63;;;1.20;;
20828;SDS011;10575;50.124;8.582;2022-08-06T03:56:23;1.60;;;1.10;;
20828;SDS011;10575;50.124;8.582;2022-08-06T03:58:50;2.17;;;1.10;;
20828;SDS011;10575;50.124;8.582;2022-08-06T04:01:20;1.63;;;1.20;;
20828;SDS011;10575;50.124;8.582;2022-08-06T04:03:49;3.33;;;1.35;;
20828;SDS011;10575;50.124;8.582;2022-08-06T04:06:17;3.90;;;1.20;;
20828;SDS011;10575;50.124;8.582;2022-08-06T04:08:44;3.33;;;1.10;;
20828;SDS011;10575;50.124;8.582;2022-08-06T04:11:10;1.05;;;0.90;;
20828;SDS011;10575;50.124;8.582;2022-08-06T04:13:37;1.25;;;1.15;;
20828;SDS011;10575;50.124;8.582;2022-08-06T04:16:04;1.52;;;1.10;;
20828;SDS011;10575;50.124;8.582;2022-08-06T04:18:35;2.42;;;0.95;;
20828;SDS011;10575;50.124;8.582;2022-08-06T04:21:04;2.42;;;1.25;;
20828;SDS011;10575;50.124;8.582;2022-08-06T04:23:32;1.45;;;1.02;;
20828;SDS011;10575;50.124;8.582;2022-08-06T04:25:59;1.73;;;1.27;;
20828;SDS011;10575;50.124;8.582;2022-08-06T04:28:27;2.85;;;1.13;;
20828;SDS011;10575;50.124;8.582;2022-08-06T04:30:55;3.33;;;1.30;;
20828;SDS011;10575;50.124;8.582;2022-08-06T04:33:23;1.02;;;0.93;;
20828;SDS011;10575;50.124;8.582;2022-08-06T04:35:50;1.95;;;1.42;;
20828;SDS011;10575;50.124;8.582;2022-08-06T04:38:17;2.80;;;1.15;;
20828;SDS011;10575;50.124;8.582;2022-08-06T04:40:45;7.78;;;1.40;;
20828;SDS011;10575;50.124;8.582;2022-08-06T04:43:11;3.85;;;1.42;;
20828;SDS011;10575;50.124;8.582;2022-08-06T04:45:38;2.80;;;1.17;;
20828;SDS011;10575;50.124;8.582;2022-08-06T04:48:06;3.00;;;1.33;;
20828;SDS011;10575;50.124;8.582;2022-08-06T04:50:34;4.78;;;1.30;;
20828;SDS011;10575;50.124;8.582;2022-08-06T04:53:07;4.35;;;1.45;;
20828;SDS011;10575;50.124;8.582;2022-08-06T04:55:41;2.78;;;1.90;;
20828;SDS011;10575;50.124;8.582;2022-08-06T04:58:09;3.83;;;1.40;;
20828;SDS011;10575;50.124;8.582;2022-08-06T05:00:37;2.90;;;1.40;;
20828;SDS011;10575;50.124;8.582;2022-08-06T05:03:04;1.55;;;1.10;;
20828;SDS011;10575;50.124;8.582;2022-08-06T05:05:31;4.50;;;1.88;;
20828;SDS011;10575;50.124;8.582;2022-08-06T05:08:00;2.05;;;1.23;;
20828;SDS011;10575;50.124;8.582;2022-08-06T05:10:30;5.63;;;1.30;;
20828;SDS011;10575;50.124;8.582;2022-08-06T05:13:00;2.65;;;1.40;;
20828;SDS011;10575;50.124;8.582;2022-08-06T05:15:32;2.78;;;1.40;;
20828;SDS011;10575;50.124;8.582;2022-08-06T05:18:04;1.75;;;1.10;;
20828;SDS011;10575;50.124;8.582;2022-08-06T05:20:34;2.08;;;1.30;;
20828;SDS011;10575;50.124;8.582;2022-08-06T05:23:08;2.45;;;1.40;;
20828;SDS011;10575;50.124;8.582;2022-08-06T05:25:37;3.30;;;1.13;;
20828;SDS011;10575;50.124;8.582;2022-08-06T05:28:07;4.53;;;1.40;;
20828;SDS011;10575;50.124;8.582;2022-08-06T05:30:33;2.03;;;1.50;;
20828;SDS011;10575;50.124;8.582;2022-08-06T05:33:05;2.45;;;1.05;;
20828;SDS011;10575;50.124;8.582;2022-08-06T05:35:31;2.50;;;1.00;;
20828;SDS011;10575;50.124;8.582;2022-08-06T05:37:56;1.58;;;1.38;;
20828;SDS011;10575;50.124;8.582;2022-08-06T05:40:22;1.73;;;1.25;;
20828;SDS011;10575;50.124;8.582;2022-08-06T05:42:47;2.90;;;1.40;;
20828;SDS011;10575;50.124;8.582;2022-08-06T05:45:13;2.70;;;1.30;;
20828;SDS011;10575;50.124;8.582;2022-08-06T05:47:44;3.13;;;1.00;;
20828;SDS011;10575;50.124;8.582;2022-08-06T05:50:14;1.60;;;0.90;;
20828;SDS011;10575;50.124;8.582;2022-08-06T05:55:31;2.30;;;1.00;;
20828;SDS011;10575;50.124;8.582;2022-08-06T05:58:01;2.35;;;1.10;;
20828;SDS011;10575;50.124;8.582;2022-08-06T06:00:31;1.38;;;1.27;;
20828;SDS011;10575;50.124;8.582;2022-08-06T06:02:58;3.10;;;1.23;;
20828;SDS011;10575;50.124;8.582;2022-08-06T06:05:26;1.90;;;1.10;;
20828;SDS011;10575;50.124;8.582;2022-08-06T06:07:52;1.55;;;1.30;;
20828;SDS011;10575;50.124;8.582;2022-08-06T06:10:20;3.13;;;0.90;;
20828;SDS011;10575;50.124;8.582;2022-08-06T06:12:48;2.70;;;1.00;;
20828;SDS011;10575;50.124;8.582;2022-08-06T06:15:14;2.50;;;0.98;;
20828;SDS011;10575;50.124;8.582;2022-08-06T06:20:41;1.38;;;0.93;;
20828;SDS011;10575;50.124;8.582;2022-08-06T06:23:19;1.52;;;1.00;;
20828;SDS011;10575;50.124;8.582;2022-08-06T06:32:13;3.10;;;1.02;;
20828;SDS011;10575;50.124;8.582;2022-08-06T06:34:37;1.08;;;0.80;;
20828;SDS011;10575;50.124;8.582;2022-08-06T06:40:00;2.17;;;1.10;;
20828;SDS011;10575;50.124;8.582;2022-08-06T06:45:31;2.45;;;0.90;;
20828;SDS011;10575;50.124;8.582;2022-08-06T06:48:14;3.20;;;0.80;;
20828;SDS011;10575;50.124;8.582;2022-08-06T06:50:45;1.85;;;0.85;;
20828;SDS011;10575;50.124;8.582;2022-08-06T06:53:15;1.60;;;0.85;;
20828;SDS011;10575;50.124;8.582;2022-08-06T06:55:44;2.15;;;0.75;;
20828;SDS011;10575;50.124;8.582;2022-08-06T07:00:44;2.72;;;0.95;;
20828;SDS011;10575;50.124;8.582;2022-08-06T07:03:11;1.35;;;0.77;;
20828;SDS011;10575;50.124;8.582;2022-08-06T07:05:38;2.88;;;0.98;;
20828;SDS011;10575;50.124;8.582;2022-08-06T07:08:08;2.28;;;0.80;;
20828;SDS011;10575;50.124;8.582;2022-08-06T07:10:36;1.45;;;0.60;;
20828;SDS011;10575;50.124;8.582;2022-08-06T07:13:05;1.48;;;0.70;;
20828;SDS011;10575;50.124;8.582;2022-08-06T07:15:32;0.95;;;0.70;;
20828;SDS011;10575;50.124;8.582;2022-08-06T07:17:59;1.63;;;0.73;;
20828;SDS011;10575;50.124;8.582;2022-08-06T07:20:27;0.73;;;0.60;;
20828;SDS011;10575;50.124;8.582;2022-08-06T07:22:55;0.70;;;0.60;;
20828;SDS011;10575;50.124;8.582;2022-08-06T07:25:23;1.10;;;0.65;;
20828;SDS011;10575;50.124;8.582;2022-08-06T07:27:51;2.17;;;0.70;;
20828;SDS011;10575;50.124;8.582;2022-08-06T07:30:17;2.33;;;0.80;;
20828;SDS011;10575;50.124;8.582;2022-08-06T07:32:45;2.22;;;0.90;;
20828;SDS011;10575;50.124;8.582;2022-08-06T07:35:12;1.58;;;0.68;;
20828;SDS011;10575;50.124;8.582;2022-08-06T07:37:42;2.13;;;0.98;;
20828;SDS011;10575;50.124;8.582;2022-08-06T07:40:15;1.20;;;0.65;;
20828;SDS011;10575;50.124;8.582;2022-08-06T07:43:13;1.42;;;0.60;;
20828;SDS011;10575;50.124;8.582;2022-08-06T07:45:47;4.05;;;0.90;;
20828;SDS011;10575;50.124;8.582;2022-08-06T07:48:14;1.63;;;0.80;;
20828;SDS011;10575;50.124;8.582;2022-08-06T07:50:42;1.73;;;0.77;;
20828;SDS011;10575;50.124;8.582;2022-08-06T07:53:13;2.20;;;0.70;;
20828;SDS011;10575;50.124;8.582;2022-08-06T07:55:40;0.88;;;0.60;;
20828;SDS011;10575;50.124;8.582;2022-08-06T07:58:08;4.05;;;0.85;;
20828;SDS011;10575;50.124;8.582;2022-08-06T08:00:34;0.85;;;0.70;;
20828;SDS011;10575;50.124;8.582;2022-08-06T08:03:01;1.70;;;0.90;;
20828;SDS011;10575;50.124;8.582;2022-08-06T08:05:47;2.00;;;0.68;;
20828;SDS011;10575;50.124;8.582;2022-08-06T08:08:32;3.05;;;0.77;;
20828;SDS011;10575;50.124;8.582;2022-08-06T08:10:58;1.15;;;0.77;;
20828;SDS011;10575;50.124;8.582;2022-08-06T08:13:24;1.98;;;0.80;;
20828;SDS011;10575;50.124;8.582;2022-08-06T08:15:50;1.27;;;0.70;;
20828;SDS011;10575;50.124;8.582;2022-08-06T08:18:16;2.10;;;1.00;;
20828;SDS011;10575;50.124;8.582;2022-08-06T08:20:42;1.70;;;0.70;;
20828;SDS011;10575;50.124;8.582;2022-08-06T08:23:15;0.68;;;0.55;;
20828;SDS011;10575;50.124;8.582;2022-08-06T08:25:42;1.10;;;0.63;;
20828;SDS011;10575;50.124;8.582;2022-08-06T08:28:08;0.68;;;0.60;;
20828;SDS011;10575;50.124;8.582;2022-08-06T08:30:38;1.85;;;0.90;;
20828;SDS011;10575;50.124;8.582;2022-08-06T08:33:05;1.17;;;0.63;;
20828;SDS011;10575;50.124;8.582;2022-08-06T08:35:30;1.48;;;0.60;;
20828;SDS011;10575;50.124;8.582;2022-08-06T08:37:56;1.08;;;0.57;;
20828;SDS011;10575;50.124;8.582;2022-08-06T08:40:22;1.85;;;1.00;;
20828;SDS011;10575;50.124;8.582;2022-08-06T08:42:49;2.72;;;0.63;;
20828;SDS011;10575;50.124;8.582;2022-08-06T08:45:22;2.05;;;0.80;;
20828;SDS011;10575;50.124;8.582;2022-08-06T08:47:50;0.95;;;0.70;;
20828;SDS011;10575;50.124;8.582;2022-08-06T08:50:21;2.15;;;0.50;;
20828;SDS011;10575;50.124;8.582;2022-08-06T08:52:55;1.55;;;0.70;;
20828;SDS011;10575;50.124;8.582;2022-08-06T08:55:28;3.65;;;1.10;;
20828;SDS011;10575;50.124;8.582;2022-08-06T08:57:54;1.92;;;0.65;;
20828;SDS011;10575;50.124;8.582;2022-08-06T09:00:20;1.52;;;0.75;;
20828;SDS011;10575;50.124;8.582;2022-08-06T09:02:46;2.10;;;0.70;;
20828;SDS011;10575;50.124;8.582;2022-08-06T09:05:13;2.78;;;0.90;;
20828;SDS011;10575;50.124;8.582;2022-08-06T09:07:39;1.38;;;0.70;;
20828;SDS011;10575;50.124;8.582;2022-08-06T09:10:06;3.67;;;0.90;;
20828;SDS011;10575;50.124;8.582;2022-08-06T09:12:33;2.88;;;0.80;;
20828;SDS011;10575;50.124;8.582;2022-08-06T09:14:59;4.70;;;1.00;;
20828;SDS011;10575;50.124;8.582;2022-08-06T09:17:24;2.33;;;1.02;;
20828;SDS011;10575;50.124;8.582;2022-08-06T09:19:51;3.90;;;0.80;;
20828;SDS011;10575;50.124;8.582;2022-08-06T09:22:16;1.65;;;0.70;;
20828;SDS011;10575;50.124;8.582;2022-08-06T09:24:42;1.95;;;0.90;;
20828;SDS011;10575;50.124;8.582;2022-08-06T09:27:09;1.98;;;0.80;;
20828;SDS011;10575;50.124;8.582;2022-08-06T09:29:36;1.67;;;0.93;;
20828;SDS011;10575;50.124;8.582;2022-08-06T09:32:37;1.33;;;0.60;;
20828;SDS011;10575;50.124;8.582;2022-08-06T09:35:40;1.83;;;1.02;;
20828;SDS011;10575;50.124;8.582;2022-08-06T09:38:00;1.63;;;0.60;;
20828;SDS011;10575;50.124;8.582;2022-08-06T09:40:27;4.10;;;0.60;;
20828;SDS011;10575;50.124;8.582;2022-08-06T09:42:53;1.55;;;0.50;;
20828;SDS011;10575;50.124;8.582;2022-08-06T09:45:19;2.53;;;0.88;;
20828;SDS011;10575;50.124;8.582;2022-08-06T09:47:47;2.55;;;0.75;;
20828;SDS011;10575;50.124;8.582;2022-08-06T09:50:14;1.80;;;0.90;;
20828;SDS011;10575;50.124;8.582;2022-08-06T09:52:41;1.10;;;0.68;;
20828;SDS011;10575;50.124;8.582;2022-08-06T09:55:06;0.90;;;0.60;;
20828;SDS011;10575;50.124;8.582;2022-08-06T09:57:42;1.85;;;0.75;;
20828;SDS011;10575;50.124;8.582;2022-08-06T10:00:09;1.63;;;0.90;;
20828;SDS011;10575;50.124;8.582;2022-08-06T10:02:36;2.13;;;0.80;;
20828;SDS011;10575;50.124;8.582;2022-08-06T10:05:09;1.63;;;1.00;;
20828;SDS011;10575;50.124;8.582;2022-08-06T10:07:38;2.00;;;0.90;;
20828;SDS011;10575;50.124;8.582;2022-08-06T10:10:05;3.03;;;0.70;;
20828;SDS011;10575;50.124;8.582;2022-08-06T10:12:31;2.03;;;0.88;;
20828;SDS011;10575;50.124;8.582;2022-08-06T10:14:58;3.20;;;1.00;;
20828;SDS011;10575;50.124;8.582;2022-08-06T10:17:24;3.50;;;0.90;;
20828;SDS011;10575;50.124;8.582;2022-08-06T10:20:04;2.60;;;0.90;;
20828;SDS011;10575;50.124;8.582;2022-08-06T10:22:32;2.20;;;0.80;;
20828;SDS011;10575;50.124;8.582;2022-08-06T10:25:00;0.82;;;0.70;;
20828;SDS011;10575;50.124;8.582;2022-08-06T10:27:31;2.65;;;1.00;;
20828;SDS011;10575;50.124;8.582;2022-08-06T10:30:01;2.40;;;0.70;;
20828;SDS011;10575;50.124;8.582;2022-08-06T10:32:31;3.47;;;0.82;;
20828;SDS011;10575;50.124;8.582;2022-08-06T10:35:06;2.85;;;0.60;;
20828;SDS011;10575;50.124;8.582;2022-08-06T10:37:35;1.70;;;0.70;;
20828;SDS011;10575;50.124;8.582;2022-08-06T10:40:06;3.72;;;0.70;;
20828;SDS011;10575;50.124;8.582;2022-08-06T10:42:34;3.15;;;0.98;;
20828;SDS011;10575;50.124;8.582;2022-08-06T10:44:59;3.78;;;0.95;;
20828;SDS011;10575;50.124;8.582;2022-08-06T10:47:27;3.70;;;1.10;;
20828;SDS011;10575;50.124;8.582;2022-08-06T10:49:53;2.75;;;1.02;;
20828;SDS011;10575;50.124;8.582;2022-08-06T10:52:20;2.88;;;0.80;;
20828;SDS011;10575;50.124;8.582;2022-08-06T10:54:46;2.08;;;1.02;;
20828;SDS011;10575;50.124;8.582;2022-08-06T10:57:12;3.00;;;0.95;;
20828;SDS011;10575;50.124;8.582;2022-08-06T10:59:41;2.20;;;0.80;;
20828;SDS011;10575;50.124;8.582;2022-08-06T11:02:12;4.25;;;0.85;;
20828;SDS011;10575;50.124;8.582;2022-08-06T11:05:01;1.67;;;0.77;;
20828;SDS011;10575;50.124;8.582;2022-08-06T11:07:53;2.17;;;0.80;;
20828;SDS011;10575;50.124;8.582;2022-08-06T11:15:49;2.92;;;0.80;;
20828;SDS011;10575;50.124;8.582;2022-08-06T11:18:16;1.83;;;0.60;;
20828;SDS011;10575;50.124;8.582;2022-08-06T11:20:43;1.63;;;0.70;;
20828;SDS011;10575;50.124;8.582;2022-08-06T11:25:49;1.10;;;0.52;;
20828;SDS011;10575;50.124;8.582;2022-08-06T11:28:17;4.90;;;0.80;;
20828;SDS011;10575;50.124;8.582;2022-08-06T11:30:51;1.10;;;0.75;;
20828;SDS011;10575;50.124;8.582;2022-08-06T11:33:19;2.33;;;0.98;;
20828;SDS011;10575;50.124;8.582;2022-08-06T11:35:48;2.78;;;1.05;;
20828;SDS011;10575;50.124;8.582;2022-08-06T11:38:15;1.65;;;0.80;;
20828;SDS011;10575;50.124;8.582;2022-08-06T11:41:02;1.88;;;0.70;;
20828;SDS011;10575;50.124;8.582;2022-08-06T11:44:02;2.45;;;0.85;;
20828;SDS011;10575;50.124;8.582;2022-08-06T11:46:31;2.25;;;0.73;;
20828;SDS011;10575;50.124;8.582;2022-08-06T11:51:36;1.83;;;0.80;;
20828;SDS011;10575;50.124;8.582;2022-08-06T11:59:27;2.15;;;0.80;;
20828;SDS011;10575;50.124;8.582;2022-08-06T12:01:54;0.60;;;0.60;;
20828;SDS011;10575;50.124;8.582;2022-08-06T12:10:00;2.08;;;0.60;;
20828;SDS011;10575;50.124;8.582;2022-08-06T12:14:56;0.60;;;0.60;;
20828;SDS011;10575;50.124;8.582;2022-08-06T12:17:23;3.03;;;0.98;;
20828;SDS011;10575;50.124;8.582;2022-08-06T12:19:50;1.67;;;0.88;;
20828;SDS011;10575;50.124;8.582;2022-08-06T12:22:18;2.30;;;0.43;;
20828;SDS011;10575;50.124;8.582;2022-08-06T12:24:47;1.15;;;0.60;;
20828;SDS011;10575;50.124;8.582;2022-08-06T12:27:15;1.27;;;0.50;;
20828;SDS011;10575;50.124;8.582;2022-08-06T12:29:42;1.35;;;0.77;;
20828;SDS011;10575;50.124;8.582;2022-08-06T12:32:21;0.82;;;0.60;;
20828;SDS011;10575;50.124;8.582;2022-08-06T12:34:48;1.75;;;0.98;;
20828;SDS011;10575;50.124;8.582;2022-08-06T12:37:15;0.93;;;0.75;;
20828;SDS011;10575;50.124;8.582;2022-08-06T12:39:41;1.17;;;0.60;;
20828;SDS011;10575;50.124;8.582;2022-08-06T12:42:26;1.35;;;0.85;;
20828;SDS011;10575;50.124;8.582;2022-08-06T12:44:53;0.82;;;0.80;;
20828;SDS011;10575;50.124;8.582;2022-08-06T12:47:19;1.17;;;0.57;;
20828;SDS011;10575;50.124;8.582;2022-08-06T12:49:46;1.45;;;0.80;;
20828;SDS011;10575;50.124;8.582;2022-08-06T12:54:38;1.20;;;1.05;;
20828;SDS011;10575;50.124;8.582;2022-08-06T12:57:04;2.13;;;0.85;;
20828;SDS011;10575;50.124;8.582;2022-08-06T12:59:30;0.95;;;0.63;;
20828;SDS011;10575;50.124;8.582;2022-08-06T13:01:56;1.10;;;0.50;;
20828;SDS011;10575;50.124;8.582;2022-08-06T13:04:22;1.67;;;0.63;;
20828;SDS011;10575;50.124;8.582;2022-08-06T13:06:49;1.23;;;0.65;;
20828;SDS011;10575;50.124;8.582;2022-08-06T13:09:15;1.27;;;0.70;;
20828;SDS011;10575;50.124;8.582;2022-08-06T13:11:43;1.73;;;0.52;;
20828;SDS011;10575;50.124;8.582;2022-08-06T13:14:10;0.98;;;0.60;;
20828;SDS011;10575;50.124;8.582;2022-08-06T13:16:38;1.95;;;0.60;;
20828;SDS011;10575;50.124;8.582;2022-08-06T13:19:13;0.82;;;0.73;;
20828;SDS011;10575;50.124;8.582;2022-08-06T13:21:41;1.70;;;0.50;;
20828;SDS011;10575;50.124;8.582;2022-08-06T13:24:08;0.70;;;0.50;;
20828;SDS011;10575;50.124;8.582;2022-08-06T13:26:45;0.50;;;0.50;;
20828;SDS011;10575;50.124;8.582;2022-08-06T13:29:17;4.05;;;0.68;;
20828;SDS011;10575;50.124;8.582;2022-08-06T13:31:44;2.78;;;0.60;;
20828;SDS011;10575;50.124;8.582;2022-08-06T13:34:12;0.65;;;0.50;;
20828;SDS011;10575;50.124;8.582;2022-08-06T13:36:41;1.75;;;0.60;;
20828;SDS011;10575;50.124;8.582;2022-08-06T13:39:21;1.15;;;0.68;;
20828;SDS011;10575;50.124;8.582;2022-08-06T13:44:39;2.92;;;0.45;;
20828;SDS011;10575;50.124;8.582;2022-08-06T13:47:09;1.50;;;0.60;;
20828;SDS011;10575;50.124;8.582;2022-08-06T13:49:38;1.27;;;0.45;;
20828;SDS011;10575;50.124;8.582;2022-08-06T13:52:04;2.67;;;0.60;;
20828;SDS011;10575;50.124;8.582;2022-08-06T13:54:31;2.78;;;0.55;;
20828;SDS011;10575;50.124;8.582;2022-08-06T13:56:56;0.95;;;0.50;;
20828;SDS011;10575;50.124;8.582;2022-08-06T13:59:24;1.08;;;0.80;;
20828;SDS011;10575;50.124;8.582;2022-08-06T14:01:51;1.38;;;0.60;;
20828;SDS011;10575;50.124;8.582;2022-08-06T14:04:18;0.55;;;0.43;;
20828;SDS011;10575;50.124;8.582;2022-08-06T14:06:47;3.47;;;0.60;;
20828;SDS011;10575;50.124;8.582;2022-08-06T14:09:15;1.75;;;0.70;;
20828;SDS011;10575;50.124;8.582;2022-08-06T14:11:41;1.40;;;0.55;;
20828;SDS011;10575;50.124;8.582;2022-08-06T14:14:07;2.08;;;0.40;;
20828;SDS011;10575;50.124;8.582;2022-08-06T14:16:33;0.77;;;0.50;;
20828;SDS011;10575;50.124;8.582;2022-08-06T14:18:58;1.63;;;0.50;;
20828;SDS011;10575;50.124;8.582;2022-08-06T14:21:24;4.38;;;0.77;;
20828;SDS011;10575;50.124;8.582;2022-08-06T14:23:49;2.00;;;1.00;;
20828;SDS011;10575;50.124;8.582;2022-08-06T14:26:15;3.03;;;1.17;;
20828;SDS011;10575;50.124;8.582;2022-08-06T14:28:41;0.90;;;0.80;;
20828;SDS011;10575;50.124;8.582;2022-08-06T14:31:06;0.38;;;0.38;;
20828;SDS011;10575;50.124;8.582;2022-08-06T14:33:33;0.50;;;0.50;;
20828;SDS011;10575;50.124;8.582;2022-08-06T14:35:59;1.23;;;0.52;;
20828;SDS011;10575;50.124;8.582;2022-08-06T14:38:24;0.50;;;0.50;;
20828;SDS011;10575;50.124;8.582;2022-08-06T14:40:50;2.45;;;0.50;;
20828;SDS011;10575;50.124;8.582;2022-08-06T14:43:34;0.50;;;0.50;;
20828;SDS011;10575;50.124;8.582;2022-08-06T14:46:18;1.25;;;0.55;;
20828;SDS011;10575;50.124;8.582;2022-08-06T14:48:43;1.55;;;0.50;;
20828;SDS011;10575;50.124;8.582;2022-08-06T14:51:09;0.73;;;0.57;;
20828;SDS011;10575;50.124;8.582;2022-08-06T14:53:34;2.00;;;0.80;;
20828;SDS011;10575;50.124;8.582;2022-08-06T14:56:00;1.75;;;0.40;;
20828;SDS011;10575;50.124;8.582;2022-08-06T14:58:25;0.93;;;0.57;;
20828;SDS011;10575;50.124;8.582;2022-08-06T15:00:51;3.67;;;0.68;;
20828;SDS011;10575;50.124;8.582;2022-08-06T15:03:17;0.80;;;0.50;;
20828;SDS011;10575;50.124;8.582;2022-08-06T15:05:43;1.45;;;0.82;;
20828;SDS011;10575;50.124;8.582;2022-08-06T15:08:10;0.57;;;0.50;;
20828;SDS011;10575;50.124;8.582;2022-08-06T15:10:36;2.28;;;0.47;;
20828;SDS011;10575;50.124;8.582;2022-08-06T15:13:03;2.70;;;0.60;;
20828;SDS011;10575;50.124;8.582;2022-08-06T15:15:30;3.72;;;0.65;;
20828;SDS011;10575;50.124;8.582;2022-08-06T15:17:56;1.08;;;0.50;;
20828;SDS011;10575;50.124;8.582;2022-08-06T15:20:22;2.25;;;0.60;;
20828;SDS011;10575;50.124;8.582;2022-08-06T15:22:47;2.97;;;0.68;;
20828;SDS011;10575;50.124;8.582;2022-08-06T15:25:13;1.80;;;0.70;;
20828;SDS011;10575;50.124;8.582;2022-08-06T15:27:42;2.15;;;1.00;;
20828;SDS011;10575;50.124;8.582;2022-08-06T15:30:12;1.95;;;0.57;;
20828;SDS011;10575;50.124;8.582;2022-08-06T15:32:38;0.50;;;0.50;;
20828;SDS011;10575;50.124;8.582;2022-08-06T15:35:04;1.40;;;0.60;;
20828;SDS011;10575;50.124;8.582;2022-08-06T15:37:30;2.60;;;0.50;;
20828;SDS011;10575;50.124;8.582;2022-08-06T15:39:56;1.13;;;0.60;;
20828;SDS011;10575;50.124;8.582;2022-08-06T15:42:22;1.52;;;0.77;;
20828;SDS011;10575;50.124;8.582;2022-08-06T15:44:48;2.17;;;0.63;;
20828;SDS011;10575;50.124;8.582;2022-08-06T15:47:15;0.65;;;0.63;;
20828;SDS011;10575;50.124;8.582;2022-08-06T15:49:41;0.47;;;0.40;;
20828;SDS011;10575;50.124;8.582;2022-08-06T15:52:06;1.23;;;0.73;;
20828;SDS011;10575;50.124;8.582;2022-08-06T15:54:33;0.77;;;0.70;;
20828;SDS011;10575;50.124;8.582;2022-08-06T15:57:00;0.93;;;0.50;;
20828;SDS011;10575;50.124;8.582;2022-08-06T15:59:25;1.30;;;0.63;;